createdAt,value
2022-08-05T00:01:21.030Z,101057.47
2022-08-05T00:04:28.488Z,101046.88
2022-08-05T00:08:00.120Z,101051.66
2022-08-05T00:11:01.962Z,101049.84
2022-08-05T00:14:11.954Z,101055.00
2022-08-05T00:17:19.673Z,101044.66
2022-08-05T00:20:29.025Z,101039.53
2022-08-05T00:23:45.700Z,101039.84
2022-08-05T00:26:53.635Z,101041.31
2022-08-05T00:30:00.402Z,101036.16
2022-08-05T00:33:15.517Z,101031.44
2022-08-05T00:37:12.653Z,101027.25
2022-08-05T00:40:01.151Z,101031.53
2022-08-05T00:43:08.171Z,101024.53
2022-08-05T00:46:16.169Z,101022.69
2022-08-05T00:49:21.672Z,101027.84
2022-08-05T00:52:28.702Z,101030.31
2022-08-05T00:55:42.865Z,101027.66
2022-08-05T00:58:49.834Z,101028.78
2022-08-05T01:01:55.455Z,101020.72
2022-08-05T01:05:00.682Z,101019.88
2022-08-05T01:08:39.898Z,101016.47
2022-08-05T01:11:39.968Z,101013.94
2022-08-05T01:15:06.546Z,101019.00
2022-08-05T01:18:41.355Z,101011.09
2022-08-05T01:22:28.166Z,101012.34
2022-08-05T01:26:02.775Z,101012.53
2022-08-05T01:29:23.111Z,101007.88
2022-08-05T01:32:31.672Z,101007.53
2022-08-05T01:35:50.756Z,101000.13
2022-08-05T01:39:01.181Z,101000.94
2022-08-05T01:42:12.053Z,101004.34
2022-08-05T01:45:21.485Z,101004.88
2022-08-05T01:48:29.361Z,101005.59
2022-08-05T01:51:36.611Z,100999.22
2022-08-05T01:54:49.199Z,100999.56
2022-08-05T01:58:29.499Z,100991.63
2022-08-05T02:01:28.283Z,100998.22
2022-08-05T02:04:43.278Z,100994.72
2022-08-05T02:07:59.808Z,100998.22
2022-08-05T02:11:11.649Z,100996.94
2022-08-05T02:14:29.315Z,100999.91
2022-08-05T02:18:31.484Z,100992.44
2022-08-05T02:21:42.891Z,100999.19
2022-08-05T02:24:56.581Z,100997.06
2022-08-05T02:28:08.684Z,101004.94
2022-08-05T02:31:28.449Z,101006.69
2022-08-05T02:34:42.173Z,101006.69
2022-08-05T02:37:53.991Z,101009.91
2022-08-05T02:41:00.766Z,101011.00
2022-08-05T02:44:24.075Z,101004.25
2022-08-05T02:47:58.595Z,101004.94
2022-08-05T02:51:01.723Z,101003.97
2022-08-05T02:54:07.953Z,101011.06
2022-08-05T02:58:10.788Z,101014.63
2022-08-05T03:00:46.098Z,101007.59
2022-08-05T03:04:02.800Z,101001.06
2022-08-05T03:07:40.296Z,101005.56
2022-08-05T03:10:37.244Z,101000.44
2022-08-05T03:13:51.987Z,100994.72
2022-08-05T03:17:09.168Z,100991.19
2022-08-05T03:20:15.341Z,100993.59
2022-08-05T03:23:24.174Z,100988.41
2022-08-05T03:26:32.414Z,100996.91
2022-08-05T03:29:45.424Z,100989.66
2022-08-05T03:33:07.258Z,100997.09
2022-08-05T03:36:13.222Z,100989.44
2022-08-05T03:39:20.136Z,101003.34
2022-08-05T03:42:33.116Z,101000.81
2022-08-05T03:45:59.019Z,100999.53
2022-08-05T03:49:05.145Z,100995.00
2022-08-05T03:52:36.559Z,100988.78
2022-08-05T03:56:10.566Z,100981.44
2022-08-05T03:59:29.267Z,100979.03
2022-08-05T04:02:58.597Z,100982.25
2022-08-05T04:06:06.737Z,100983.22
2022-08-05T04:09:25.863Z,100987.03
2022-08-05T04:15:39.732Z,100993.44
2022-08-05T04:19:10.629Z,100986.53
2022-08-05T04:22:20.505Z,100987.03
2022-08-05T04:25:57.956Z,100987.03
2022-08-05T04:28:52.397Z,100993.91
2022-08-05T04:31:57.798Z,100987.84
2022-08-05T04:35:03.174Z,100987.81
2022-08-05T04:38:11.064Z,100989.75
2022-08-05T04:41:21.726Z,100981.41
2022-08-05T04:44:43.238Z,100983.34
2022-08-05T04:47:50.231Z,100986.50
2022-08-05T04:51:01.630Z,100986.03
2022-08-05T04:54:09.690Z,100989.69
2022-08-05T04:57:15.870Z,100985.19
2022-08-05T05:00:23.589Z,100985.31
2022-08-05T05:03:32.503Z,100984.44
2022-08-05T05:06:52.033Z,100992.34
2022-08-05T05:10:06.329Z,100984.31
2022-08-05T05:13:14.962Z,100976.25
2022-08-05T05:16:20.683Z,100982.50
2022-08-05T05:19:36.992Z,100987.47
2022-08-05T05:22:52.575Z,100979.22
2022-08-05T05:25:57.878Z,100987.00
2022-08-05T05:29:10.140Z,100992.16
2022-08-05T05:32:20.538Z,100992.47
2022-08-05T05:35:26.614Z,100994.28
2022-08-05T05:38:35.362Z,100993.69
2022-08-05T05:41:41.922Z,100999.31
2022-08-05T05:44:47.998Z,100998.25
2022-08-05T05:48:06.247Z,100996.06
2022-08-05T05:51:19.842Z,100994.53
2022-08-05T05:54:49.789Z,100995.75
2022-08-05T05:57:52.829Z,101000.44
2022-08-05T06:01:02.059Z,100992.88
2022-08-05T06:04:13.177Z,100994.09
2022-08-05T06:07:22.478Z,100997.09
2022-08-05T06:10:29.532Z,100991.25
2022-08-05T06:13:50.448Z,100997.78
2022-08-05T06:17:02.086Z,100998.63
2022-08-05T06:20:28.696Z,101000.91
2022-08-05T06:23:44.234Z,101009.47
2022-08-05T06:26:52.397Z,101001.81
2022-08-05T06:30:04.602Z,101006.22
2022-08-05T06:33:33.261Z,101008.84
2022-08-05T06:36:57.429Z,100999.31
2022-08-05T06:40:05.987Z,101002.09
2022-08-05T06:43:58.163Z,101013.94
2022-08-05T06:46:38.457Z,101021.81
2022-08-05T06:50:01.385Z,101026.72
2022-08-05T06:53:22.370Z,101016.97
2022-08-05T06:56:34.469Z,101022.88
2022-08-05T06:59:42.210Z,101021.28
2022-08-05T07:02:54.406Z,101029.00
2022-08-05T07:06:05.963Z,101023.09
2022-08-05T07:09:19.801Z,101022.13
2022-08-05T07:12:49.424Z,101025.31
2022-08-05T07:16:13.558Z,101025.75
2022-08-05T07:23:06.562Z,101014.41
2022-08-05T07:26:13.313Z,101012.34
2022-08-05T07:29:20.187Z,101017.53
2022-08-05T07:32:46.492Z,101019.56
2022-08-05T07:36:05.889Z,101019.78
2022-08-05T07:40:26.150Z,101012.81
2022-08-05T07:42:50.906Z,101015.38
2022-08-05T07:45:58.237Z,101017.75
2022-08-05T07:49:07.773Z,101007.31
2022-08-05T07:52:13.732Z,101007.47
2022-08-05T07:55:44.510Z,101011.06
2022-08-05T07:58:57.851Z,101007.31
2022-08-05T08:02:05.321Z,101009.69
2022-08-05T08:05:11.590Z,101015.63
2022-08-05T08:08:19.922Z,101007.00
2022-08-05T08:11:27.817Z,101004.69
2022-08-05T08:14:51.850Z,101006.47
2022-08-05T08:17:57.556Z,101004.69
2022-08-05T08:21:09.709Z,101013.16
2022-08-05T08:24:21.863Z,101016.09
2022-08-05T08:27:51.438Z,101013.63
2022-08-05T08:30:57.160Z,101018.19
2022-08-05T08:34:02.898Z,101011.66
2022-08-05T08:37:08.627Z,101016.28
2022-08-05T08:40:14.899Z,101016.63
2022-08-05T08:45:20.785Z,101015.44
2022-08-05T08:46:49.594Z,101012.78
2022-08-05T08:50:13.136Z,101013.50
2022-08-05T08:53:27.858Z,101002.91
2022-08-05T08:56:35.083Z,100997.16
2022-08-05T08:59:47.156Z,101012.06
2022-08-05T09:02:55.257Z,101003.53
2022-08-05T09:06:08.765Z,101003.03
2022-08-05T09:09:16.822Z,101004.66
2022-08-05T09:12:27.811Z,101004.16
2022-08-05T09:15:36.838Z,100996.09
2022-08-05T09:18:44.888Z,100998.69
2022-08-05T09:22:23.393Z,101000.94
2022-08-05T09:25:23.911Z,100998.91
2022-08-05T09:28:48.287Z,101001.06
2022-08-05T09:32:40.092Z,100993.28
2022-08-05T09:35:32.787Z,101001.22
2022-08-05T09:38:38.745Z,101001.22
2022-08-05T09:41:59.137Z,100992.53
2022-08-05T09:46:04.945Z,100999.06
2022-08-05T09:48:35.367Z,100992.50
2022-08-05T09:51:42.672Z,100990.88
2022-08-05T09:55:58.138Z,100987.09
2022-08-05T09:58:38.704Z,100972.66
2022-08-05T10:01:48.543Z,100980.31
2022-08-05T10:05:10.766Z,100972.56
2022-08-05T10:08:37.249Z,100968.78
2022-08-05T10:11:45.752Z,100971.09
2022-08-05T10:14:54.502Z,100968.00
2022-08-05T10:18:17.432Z,100962.84
2022-08-05T10:21:22.953Z,100961.84
2022-08-05T10:24:29.039Z,100963.03
2022-08-05T10:28:09.455Z,100959.41
2022-08-05T10:32:51.660Z,100956.31
2022-08-05T10:34:29.973Z,100957.81
2022-08-05T10:37:44.364Z,100952.53
2022-08-05T10:40:52.377Z,100950.25
2022-08-05T10:44:09.371Z,100956.47
2022-08-05T10:47:26.574Z,100951.50
2022-08-05T10:50:37.140Z,100946.38
2022-08-05T10:53:55.004Z,100947.25
2022-08-05T10:57:00.753Z,100942.06
2022-08-05T11:00:22.632Z,100947.72
2022-08-05T11:03:29.786Z,100942.63
2022-08-05T11:06:36.670Z,100945.00
2022-08-05T11:09:46.148Z,100936.34
2022-08-05T11:12:55.060Z,100945.81
2022-08-05T11:16:33.683Z,100941.84
2022-08-05T11:20:10.526Z,100940.25
2022-08-05T11:23:33.745Z,100931.16
2022-08-05T11:27:51.475Z,100928.03
2022-08-05T11:30:58.447Z,100935.16
2022-08-05T11:34:08.187Z,100929.66
2022-08-05T11:38:36.900Z,100924.47
2022-08-05T11:41:57.962Z,100924.06
2022-08-05T11:45:14.569Z,100923.66
2022-08-05T11:48:33.527Z,100913.81
2022-08-05T11:51:44.756Z,100915.75
2022-08-05T11:54:55.801Z,100918.13
2022-08-05T11:58:10.385Z,100916.94
2022-08-05T12:01:21.451Z,100909.41
2022-08-05T12:04:29.630Z,100909.44
2022-08-05T12:08:08.837Z,100909.44
2022-08-05T12:11:06.336Z,100899.97
2022-08-05T12:14:12.319Z,100907.06
2022-08-05T12:18:03.724Z,100903.13
2022-08-05T12:20:43.556Z,100898.38
2022-08-05T12:24:11.317Z,100899.56
2022-08-05T12:27:25.708Z,100889.28
2022-08-05T12:30:39.192Z,100896.44
2022-08-05T12:33:51.649Z,100893.25
2022-08-05T12:37:11.031Z,100890.91
2022-08-05T12:40:29.657Z,100892.50
2022-08-05T12:43:36.416Z,100883.38
2022-08-05T12:46:53.075Z,100877.41
2022-08-05T12:50:04.340Z,100877.81
2022-08-05T12:53:17.369Z,100870.66
2022-08-05T12:56:34.908Z,100859.19
2022-08-05T13:01:58.168Z,100858.78
2022-08-05T13:03:14.721Z,100864.31
2022-08-05T13:06:20.277Z,100855.63
2022-08-05T13:09:28.735Z,100849.25
2022-08-05T13:12:50.752Z,100854.03
2022-08-05T13:16:03.350Z,100843.28
2022-08-05T13:19:16.072Z,100842.41
2022-08-05T13:22:28.458Z,100841.66
2022-08-05T13:25:52.437Z,100831.78
2022-08-05T13:29:01.358Z,100824.59
2022-08-05T13:32:06.913Z,100826.22
2022-08-05T13:35:14.801Z,100830.19
2022-08-05T13:38:31.206Z,100819.75
2022-08-05T13:41:41.744Z,100813.00
2022-08-05T13:44:47.904Z,100816.63
2022-08-05T13:48:09.953Z,100809.78
2022-08-05T13:51:36.616Z,100807.84
2022-08-05T13:54:53.239Z,100802.94
2022-08-05T13:57:59.650Z,100805.34
2022-08-05T14:01:06.180Z,100802.13
2022-08-05T14:04:31.561Z,100795.28
2022-08-05T14:07:59.945Z,100787.66
2022-08-05T14:11:20.157Z,100781.22
2022-08-05T14:14:30.843Z,100792.97
2022-08-05T14:17:39.878Z,100784.31
2022-08-05T14:20:48.947Z,100780.75
2022-08-05T14:24:00.566Z,100765.66
2022-08-05T14:27:18.199Z,100761.31
2022-08-05T14:30:26.583Z,100763.19
2022-08-05T14:34:00.089Z,100757.56
2022-08-05T14:37:00.209Z,100756.78
2022-08-05T14:40:07.086Z,100749.63
2022-08-05T14:43:12.546Z,100743.38
2022-08-05T14:46:19.613Z,100742.88
2022-08-05T14:49:25.565Z,100749.84
2022-08-05T14:56:57.379Z,100744.06
2022-08-05T15:00:04.140Z,100745.75
2022-08-05T15:03:10.051Z,100747.66
2022-08-05T15:06:16.015Z,100740.88
2022-08-05T15:09:51.201Z,100739.22
2022-08-05T15:13:00.627Z,100738.00
2022-08-05T15:16:07.605Z,100721.84
2022-08-05T15:19:23.909Z,100715.53
2022-08-05T15:22:29.450Z,100717.44
2022-08-05T15:25:51.501Z,100721.72
2022-08-05T15:28:58.886Z,100717.25
2022-08-05T15:32:08.220Z,100713.81
2022-08-05T15:35:14.995Z,100712.97
2022-08-05T15:38:34.622Z,100709.75
2022-08-05T15:41:55.531Z,100697.91
2022-08-05T15:45:02.413Z,100691.94
2022-08-05T15:48:08.035Z,100697.88
2022-08-05T15:51:13.411Z,100690.03
2022-08-05T15:54:19.962Z,100686.06
2022-08-05T15:57:41.957Z,100685.25
2022-08-05T16:01:11.560Z,100678.44
2022-08-05T16:04:18.045Z,100677.72
2022-08-05T16:07:24.107Z,100678.91
2022-08-05T16:10:29.295Z,100675.47
2022-08-05T16:13:35.017Z,100682.91
2022-08-05T16:16:40.557Z,100670.84
2022-08-05T16:20:05.075Z,100675.44
2022-08-05T16:23:11.369Z,100672.00
2022-08-05T16:26:18.206Z,100681.56
2022-08-05T16:29:24.747Z,100687.59
2022-08-05T16:32:30.468Z,100684.88
2022-08-05T16:35:42.181Z,100688.06
2022-08-05T16:38:55.134Z,100693.44
2022-08-05T16:42:14.339Z,100696.97
2022-08-05T16:46:04.549Z,100700.41
2022-08-05T16:48:48.587Z,100709.59
2022-08-05T16:51:54.820Z,100714.28
2022-08-05T16:55:02.065Z,100713.56
2022-08-05T16:58:10.509Z,100714.66
2022-08-05T17:01:19.765Z,100706.09
2022-08-05T17:04:28.119Z,100719.88
2022-08-05T17:07:43.474Z,100718.41
2022-08-05T17:10:59.678Z,100718.91
2022-08-05T17:14:06.562Z,100717.09
2022-08-05T17:17:15.033Z,100715.19
2022-08-05T17:20:21.404Z,100724.28
2022-08-05T17:24:04.615Z,100721.94
2022-08-05T17:26:52.917Z,100728.31
2022-08-05T17:29:59.753Z,100717.22
2022-08-05T17:33:08.557Z,100725.16
2022-08-05T17:36:33.783Z,100721.19
2022-08-05T17:39:40.598Z,100722.78
2022-08-05T17:42:53.124Z,100722.81
2022-08-05T17:45:58.883Z,100723.59
2022-08-05T17:49:05.936Z,100734.69
2022-08-05T17:52:12.497Z,100728.72
2022-08-05T17:55:18.539Z,100729.50
2022-08-05T17:58:32.240Z,100728.66
2022-08-05T18:01:48.486Z,100726.16
2022-08-05T18:04:56.591Z,100731.69
2022-08-05T18:08:02.031Z,100732.78
2022-08-05T18:11:08.301Z,100734.31
2022-08-05T18:14:20.457Z,100740.59
2022-08-05T18:18:01.655Z,100736.97
2022-08-05T18:20:52.543Z,100737.28
2022-08-05T18:24:04.292Z,100736.50
2022-08-05T18:27:16.589Z,100736.47
2022-08-05T18:30:26.305Z,100739.59
2022-08-05T18:33:37.586Z,100739.56
2022-08-05T18:36:54.234Z,100741.41
2022-08-05T18:40:57.610Z,100745.25
2022-08-05T18:43:25.933Z,100749.50
2022-08-05T18:46:37.273Z,100743.56
2022-08-05T18:50:04.653Z,100747.81
2022-08-05T18:53:19.387Z,100753.69
2022-08-05T18:56:28.582Z,100760.00
2022-08-05T18:59:44.174Z,100767.13
2022-08-05T19:03:03.649Z,100761.50
2022-08-05T19:06:18.706Z,100765.19
2022-08-05T19:09:27.300Z,100777.72
2022-08-05T19:12:34.378Z,100778.72
2022-08-05T19:15:59.900Z,100781.50
2022-08-05T19:19:05.601Z,100790.88
2022-08-05T19:22:12.886Z,100791.63
2022-08-05T19:25:30.695Z,100796.69
2022-08-05T19:28:46.153Z,100797.00
2022-08-05T19:31:53.191Z,100804.44
2022-08-05T19:34:59.107Z,100807.06
2022-08-05T19:38:11.857Z,100814.13
2022-08-05T19:41:21.927Z,100815.63
2022-08-05T19:44:45.322Z,100819.06
2022-08-05T19:47:55.698Z,100829.13
2022-08-05T19:51:01.954Z,100824.97
2022-08-05T19:54:26.955Z,100825.09
2022-08-05T19:57:49.303Z,100827.75
2022-08-05T20:01:02.492Z,100834.31
2022-08-05T20:04:11.522Z,100838.47
2022-08-05T20:07:48.358Z,100839.56
2022-08-05T20:10:43.294Z,100842.47
2022-08-05T20:13:58.703Z,100849.38
2022-08-05T20:17:16.301Z,100846.97
2022-08-05T20:20:23.202Z,100848.78
2022-08-05T20:23:39.843Z,100851.59
2022-08-05T20:26:55.843Z,100853.00
2022-08-05T20:30:02.716Z,100857.41
2022-08-05T20:33:09.122Z,100857.72
2022-08-05T20:36:16.189Z,100850.97
2022-08-05T20:39:22.828Z,100858.69
2022-08-05T20:42:28.413Z,100858.00
2022-08-05T20:45:56.490Z,100859.88
2022-08-05T20:48:59.862Z,100863.31
2022-08-05T20:52:10.721Z,100862.34
2022-08-05T20:55:54.899Z,100861.66
2022-08-05T20:58:43.979Z,100867.28
2022-08-05T21:01:52.116Z,100870.19
2022-08-05T21:04:57.747Z,100876.59
2022-08-05T21:08:07.137Z,100881.47
2022-08-05T21:12:06.559Z,100894.88
2022-08-05T21:14:40.018Z,100896.09
2022-08-05T21:17:46.354Z,100897.84
2022-08-05T21:20:55.820Z,100916.00
2022-08-05T21:24:01.453Z,100924.56
2022-08-05T21:27:10.191Z,100924.75
2022-08-05T21:30:17.398Z,100934.09
2022-08-05T21:33:23.575Z,100932.81
2022-08-05T21:36:30.159Z,100932.28
2022-08-05T21:39:40.250Z,100928.19
2022-08-05T21:42:47.512Z,100935.72
2022-08-05T21:45:57.811Z,100940.63
2022-08-05T21:49:10.889Z,100955.00
2022-08-05T21:52:35.062Z,100965.34
2022-08-05T21:56:01.400Z,100963.13
2022-08-05T21:59:07.945Z,100956.66
2022-08-05T22:02:28.825Z,100952.31
2022-08-05T22:05:48.917Z,100946.09
2022-08-05T22:08:55.623Z,100944.44
2022-08-05T22:12:10.679Z,100950.72
2022-08-05T22:16:01.991Z,100949.03
2022-08-05T22:18:43.607Z,100949.47
2022-08-05T22:21:55.412Z,100945.31
2022-08-05T22:25:27.262Z,100943.81
2022-08-05T22:28:33.633Z,100939.47
2022-08-05T22:31:44.589Z,100950.19
2022-08-05T22:34:50.419Z,100945.59
2022-08-05T22:37:59.179Z,100942.22
2022-08-05T22:41:09.410Z,100936.53
2022-08-05T22:44:16.502Z,100924.63
2022-08-05T22:47:29.256Z,100922.47
2022-08-05T22:50:36.448Z,100920.53
2022-08-05T22:53:55.053Z,100914.75
2022-08-05T22:57:00.958Z,100914.00
2022-08-05T23:00:10.271Z,100910.53
2022-08-05T23:03:23.402Z,100907.25
2022-08-05T23:06:49.266Z,100898.97
2022-08-05T23:10:01.096Z,100898.81
2022-08-05T23:13:08.230Z,100909.94
2022-08-05T23:16:14.195Z,100894.53
2022-08-05T23:19:38.596Z,100887.56
2022-08-05T23:22:56.026Z,100894.19
2022-08-05T23:26:01.987Z,100876.84
2022-08-05T23:29:09.844Z,100881.81
2022-08-05T23:32:23.084Z,100876.94
2022-08-05T23:35:34.399Z,100882.59
2022-08-05T23:38:40.260Z,100879.19
2022-08-05T23:41:48.372Z,100885.69
2022-08-05T23:44:54.680Z,100881.13
2022-08-05T23:48:03.221Z,100870.50
2022-08-05T23:51:10.456Z,100877.19
2022-08-05T23:54:25.993Z,100879.75
2022-08-05T23:57:32.383Z,100880.81
